sensor_id;sensor_type;location;lat;lon;timestamp;P1;durP1;ratioP1;P2;durP2;ratioP2
15049;SDS011;7622;42.724;23.250;2023-04-25T00:02:00;1.80;;;1.70;;
15049;SDS011;7622;42.724;23.250;2023-04-25T00:04:29;2.53;;;2.33;;
15049;SDS011;7622;42.724;23.250;2023-04-25T00:07:00;2.93;;;2.73;;
15049;SDS011;7622;42.724;23.250;2023-04-25T00:09:29;3.77;;;2.30;;
15049;SDS011;7622;42.724;23.250;2023-04-25T00:11:56;3.33;;;3.03;;
15049;SDS011;7622;42.724;23.250;2023-04-25T00:14:24;2.63;;;2.43;;
15049;SDS011;7622;42.724;23.250;2023-04-25T00:16:51;3.30;;;2.93;;
15049;SDS011;7622;42.724;23.250;2023-04-25T00:19:18;4.17;;;3.17;;
15049;SDS011;7622;42.724;23.250;2023-04-25T00:21:45;6.13;;;3.10;;
15049;SDS011;7622;42.724;23.250;2023-04-25T00:24:12;3.47;;;3.17;;
15049;SDS011;7622;42.724;23.250;2023-04-25T00:26:39;3.23;;;2.93;;
15049;SDS011;7622;42.724;23.250;2023-04-25T00:29:06;3.57;;;2.97;;
15049;SDS011;7622;42.724;23.250;2023-04-25T00:31:34;2.83;;;2.50;;
15049;SDS011;7622;42.724;23.250;2023-04-25T00:34:01;3.00;;;2.50;;
15049;SDS011;7622;42.724;23.250;2023-04-25T00:36:27;3.00;;;1.80;;
15049;SDS011;7622;42.724;23.250;2023-04-25T00:38:55;2.23;;;1.50;;
15049;SDS011;7622;42.724;23.250;2023-04-25T00:41:21;1.40;;;1.30;;
15049;SDS011;7622;42.724;23.250;2023-04-25T00:43:48;1.37;;;1.30;;
15049;SDS011;7622;42.724;23.250;2023-04-25T00:46:17;1.53;;;0.90;;
15049;SDS011;7622;42.724;23.250;2023-04-25T00:48:45;0.97;;;0.97;;
15049;SDS011;7622;42.724;23.250;2023-04-25T00:51:13;1.47;;;1.20;;
15049;SDS011;7622;42.724;23.250;2023-04-25T00:53:42;1.10;;;1.10;;
15049;SDS011;7622;42.724;23.250;2023-04-25T00:56:11;1.20;;;1.10;;
15049;SDS011;7622;42.724;23.250;2023-04-25T00:58:38;1.07;;;1.07;;
15049;SDS011;7622;42.724;23.250;2023-04-25T01:01:07;1.20;;;1.10;;
15049;SDS011;7622;42.724;23.250;2023-04-25T01:03:35;1.10;;;1.00;;
15049;SDS011;7622;42.724;23.250;2023-04-25T01:06:07;1.03;;;1.03;;
15049;SDS011;7622;42.724;23.250;2023-04-25T01:08:35;1.10;;;1.10;;
15049;SDS011;7622;42.724;23.250;2023-04-25T01:11:03;1.43;;;1.37;;
15049;SDS011;7622;42.724;23.250;2023-04-25T01:13:30;1.40;;;1.40;;
15049;SDS011;7622;42.724;23.250;2023-04-25T01:15:57;2.83;;;2.30;;
15049;SDS011;7622;42.724;23.250;2023-04-25T01:18:24;2.63;;;2.43;;
15049;SDS011;7622;42.724;23.250;2023-04-25T01:20:51;2.83;;;2.63;;
15049;SDS011;7622;42.724;23.250;2023-04-25T01:23:21;3.40;;;3.10;;
15049;SDS011;7622;42.724;23.250;2023-04-25T01:25:48;3.77;;;3.47;;
15049;SDS011;7622;42.724;23.250;2023-04-25T01:28:16;4.47;;;3.93;;
15049;SDS011;7622;42.724;23.250;2023-04-25T01:30:43;4.70;;;4.40;;
15049;SDS011;7622;42.724;23.250;2023-04-25T01:33:09;6.37;;;4.83;;
15049;SDS011;7622;42.724;23.250;2023-04-25T01:35:37;6.83;;;5.63;;
15049;SDS011;7622;42.724;23.250;2023-04-25T01:38:04;6.03;;;5.40;;
15049;SDS011;7622;42.724;23.250;2023-04-25T01:40:32;5.80;;;4.93;;
15049;SDS011;7622;42.724;23.250;2023-04-25T01:43:00;6.33;;;5.73;;
15049;SDS011;7622;42.724;23.250;2023-04-25T01:45:27;5.43;;;5.03;;
15049;SDS011;7622;42.724;23.250;2023-04-25T01:47:54;8.13;;;6.33;;
15049;SDS011;7622;42.724;23.250;2023-04-25T01:50:24;7.20;;;6.47;;
15049;SDS011;7622;42.724;23.250;2023-04-25T01:52:51;8.43;;;7.70;;
15049;SDS011;7622;42.724;23.250;2023-04-25T01:55:20;8.33;;;7.53;;
15049;SDS011;7622;42.724;23.250;2023-04-25T01:57:48;7.63;;;7.03;;
15049;SDS011;7622;42.724;23.250;2023-04-25T02:00:15;9.67;;;8.10;;
15049;SDS011;7622;42.724;23.250;2023-04-25T02:02:42;8.97;;;7.47;;
15049;SDS011;7622;42.724;23.250;2023-04-25T02:05:09;8.03;;;7.33;;
15049;SDS011;7622;42.724;23.250;2023-04-25T02:07:39;7.80;;;7.10;;
15049;SDS011;7622;42.724;23.250;2023-04-25T02:10:08;7.67;;;6.97;;
15049;SDS011;7622;42.724;23.250;2023-04-25T02:12:36;7.73;;;6.93;;
15049;SDS011;7622;42.724;23.250;2023-04-25T02:15:04;7.63;;;7.03;;
15049;SDS011;7622;42.724;23.250;2023-04-25T02:17:32;7.20;;;6.70;;
15049;SDS011;7622;42.724;23.250;2023-04-25T02:19:59;7.77;;;7.07;;
15049;SDS011;7622;42.724;23.250;2023-04-25T02:22:26;7.80;;;7.10;;
15049;SDS011;7622;42.724;23.250;2023-04-25T02:24:56;7.93;;;7.13;;
15049;SDS011;7622;42.724;23.250;2023-04-25T02:27:25;10.13;;;8.50;;
15049;SDS011;7622;42.724;23.250;2023-04-25T02:29:51;10.33;;;9.33;;
15049;SDS011;7622;42.724;23.250;2023-04-25T02:32:20;10.67;;;9.57;;
15049;SDS011;7622;42.724;23.250;2023-04-25T02:34:46;10.93;;;9.80;;
15049;SDS011;7622;42.724;23.250;2023-04-25T02:37:14;11.07;;;9.67;;
15049;SDS011;7622;42.724;23.250;2023-04-25T02:39:41;12.27;;;10.00;;
15049;SDS011;7622;42.724;23.250;2023-04-25T02:42:07;12.50;;;10.30;;
15049;SDS011;7622;42.724;23.250;2023-04-25T02:44:34;13.30;;;11.00;;
15049;SDS011;7622;42.724;23.250;2023-04-25T02:47:01;13.17;;;10.80;;
15049;SDS011;7622;42.724;23.250;2023-04-25T02:49:29;17.60;;;11.53;;
15049;SDS011;7622;42.724;23.250;2023-04-25T02:51:56;15.27;;;11.00;;
15049;SDS011;7622;42.724;23.250;2023-04-25T02:54:23;15.33;;;12.40;;
15049;SDS011;7622;42.724;23.250;2023-04-25T02:56:49;16.10;;;11.53;;
15049;SDS011;7622;42.724;23.250;2023-04-25T02:59:16;13.90;;;11.47;;
15049;SDS011;7622;42.724;23.250;2023-04-25T03:01:43;17.47;;;12.63;;
15049;SDS011;7622;42.724;23.250;2023-04-25T03:04:10;23.70;;;17.87;;
15049;SDS011;7622;42.724;23.250;2023-04-25T03:06:38;22.37;;;17.43;;
15049;SDS011;7622;42.724;23.250;2023-04-25T03:09:05;18.27;;;13.53;;
15049;SDS011;7622;42.724;23.250;2023-04-25T03:11:32;16.70;;;13.27;;
15049;SDS011;7622;42.724;23.250;2023-04-25T03:13:59;17.53;;;13.03;;
15049;SDS011;7622;42.724;23.250;2023-04-25T03:16:25;14.33;;;12.43;;
15049;SDS011;7622;42.724;23.250;2023-04-25T03:18:52;16.67;;;12.33;;
15049;SDS011;7622;42.724;23.250;2023-04-25T03:21:19;13.40;;;10.60;;
15049;SDS011;7622;42.724;23.250;2023-04-25T03:23:47;10.03;;;9.00;;
15049;SDS011;7622;42.724;23.250;2023-04-25T03:26:14;11.33;;;9.57;;
15049;SDS011;7622;42.724;23.250;2023-04-25T03:28:41;11.67;;;8.80;;
15049;SDS011;7622;42.724;23.250;2023-04-25T03:31:07;11.07;;;9.83;;
15049;SDS011;7622;42.724;23.250;2023-04-25T03:33:34;10.87;;;9.77;;
15049;SDS011;7622;42.724;23.250;2023-04-25T03:36:01;12.87;;;8.53;;
15049;SDS011;7622;42.724;23.250;2023-04-25T03:38:28;10.97;;;9.07;;
15049;SDS011;7622;42.724;23.250;2023-04-25T03:40:56;11.43;;;8.73;;
15049;SDS011;7622;42.724;23.250;2023-04-25T03:43:23;12.07;;;8.63;;
15049;SDS011;7622;42.724;23.250;2023-04-25T03:45:50;12.07;;;10.47;;
15049;SDS011;7622;42.724;23.250;2023-04-25T03:48:17;13.73;;;10.10;;
15049;SDS011;7622;42.724;23.250;2023-04-25T03:50:46;12.90;;;9.87;;
15049;SDS011;7622;42.724;23.250;2023-04-25T03:53:13;16.77;;;11.03;;
15049;SDS011;7622;42.724;23.250;2023-04-25T03:55:40;13.67;;;11.17;;
15049;SDS011;7622;42.724;23.250;2023-04-25T03:58:08;12.60;;;11.03;;
15049;SDS011;7622;42.724;23.250;2023-04-25T04:00:34;12.70;;;10.57;;
15049;SDS011;7622;42.724;23.250;2023-04-25T04:03:02;13.27;;;9.63;;
15049;SDS011;7622;42.724;23.250;2023-04-25T04:05:28;7.93;;;7.13;;
15049;SDS011;7622;42.724;23.250;2023-04-25T04:07:56;7.93;;;7.23;;
15049;SDS011;7622;42.724;23.250;2023-04-25T04:10:22;7.80;;;7.10;;
15049;SDS011;7622;42.724;23.250;2023-04-25T04:12:51;7.07;;;6.47;;
15049;SDS011;7622;42.724;23.250;2023-04-25T04:15:19;7.23;;;6.63;;
15049;SDS011;7622;42.724;23.250;2023-04-25T04:17:46;7.63;;;6.93;;
15049;SDS011;7622;42.724;23.250;2023-04-25T04:20:12;8.83;;;7.17;;
15049;SDS011;7622;42.724;23.250;2023-04-25T04:22:39;9.37;;;7.30;;
15049;SDS011;7622;42.724;23.250;2023-04-25T04:25:06;8.77;;;7.57;;
15049;SDS011;7622;42.724;23.250;2023-04-25T04:27:35;7.70;;;6.87;;
15049;SDS011;7622;42.724;23.250;2023-04-25T04:30:05;8.43;;;7.63;;
15049;SDS011;7622;42.724;23.250;2023-04-25T04:32:36;8.23;;;7.43;;
15049;SDS011;7622;42.724;23.250;2023-04-25T04:35:03;8.50;;;7.20;;
15049;SDS011;7622;42.724;23.250;2023-04-25T04:37:31;14.23;;;8.67;;
15049;SDS011;7622;42.724;23.250;2023-04-25T04:39:58;8.27;;;7.47;;
15049;SDS011;7622;42.724;23.250;2023-04-25T04:42:26;8.97;;;8.10;;
15049;SDS011;7622;42.724;23.250;2023-04-25T04:44:53;10.97;;;7.57;;
15049;SDS011;7622;42.724;23.250;2023-04-25T04:47:20;9.10;;;8.20;;
15049;SDS011;7622;42.724;23.250;2023-04-25T04:49:51;9.70;;;6.80;;
15049;SDS011;7622;42.724;23.250;2023-04-25T04:52:21;10.40;;;8.37;;
15049;SDS011;7622;42.724;23.250;2023-04-25T04:54:50;8.77;;;7.97;;
15049;SDS011;7622;42.724;23.250;2023-04-25T04:57:17;9.00;;;8.10;;
15049;SDS011;7622;42.724;23.250;2023-04-25T04:59:44;8.63;;;7.83;;
15049;SDS011;7622;42.724;23.250;2023-04-25T05:02:10;8.73;;;7.70;;
15049;SDS011;7622;42.724;23.250;2023-04-25T05:04:37;8.23;;;7.43;;
15049;SDS011;7622;42.724;23.250;2023-04-25T05:07:06;8.77;;;6.80;;
15049;SDS011;7622;42.724;23.250;2023-04-25T05:09:32;7.43;;;6.43;;
15049;SDS011;7622;42.724;23.250;2023-04-25T05:11:59;7.83;;;6.33;;
15049;SDS011;7622;42.724;23.250;2023-04-25T05:14:27;9.10;;;8.20;;
15049;SDS011;7622;42.724;23.250;2023-04-25T05:16:53;8.73;;;7.93;;
15049;SDS011;7622;42.724;23.250;2023-04-25T05:19:20;8.60;;;6.67;;
15049;SDS011;7622;42.724;23.250;2023-04-25T05:21:47;8.53;;;7.73;;
15049;SDS011;7622;42.724;23.250;2023-04-25T05:24:15;8.87;;;6.90;;
15049;SDS011;7622;42.724;23.250;2023-04-25T05:26:42;7.10;;;6.43;;
15049;SDS011;7622;42.724;23.250;2023-04-25T05:29:09;6.03;;;5.50;;
15049;SDS011;7622;42.724;23.250;2023-04-25T05:31:35;6.33;;;5.67;;
15049;SDS011;7622;42.724;23.250;2023-04-25T05:34:02;4.93;;;4.60;;
15049;SDS011;7622;42.724;23.250;2023-04-25T05:36:29;4.83;;;4.53;;
15049;SDS011;7622;42.724;23.250;2023-04-25T05:38:57;6.50;;;5.33;;
15049;SDS011;7622;42.724;23.250;2023-04-25T05:41:25;6.57;;;5.30;;
15049;SDS011;7622;42.724;23.250;2023-04-25T05:43:52;5.13;;;4.63;;
15049;SDS011;7622;42.724;23.250;2023-04-25T05:46:19;5.67;;;4.97;;
15049;SDS011;7622;42.724;23.250;2023-04-25T05:48:46;6.23;;;5.63;;
15049;SDS011;7622;42.724;23.250;2023-04-25T05:51:12;6.37;;;5.00;;
15049;SDS011;7622;42.724;23.250;2023-04-25T05:53:39;6.53;;;5.93;;
15049;SDS011;7622;42.724;23.250;2023-04-25T05:56:06;6.57;;;5.83;;
15049;SDS011;7622;42.724;23.250;2023-04-25T05:58:34;6.43;;;5.87;;
15049;SDS011;7622;42.724;23.250;2023-04-25T06:01:01;6.77;;;6.10;;
15049;SDS011;7622;42.724;23.250;2023-04-25T06:03:28;9.17;;;6.50;;
15049;SDS011;7622;42.724;23.250;2023-04-25T06:05:55;6.37;;;5.50;;
15049;SDS011;7622;42.724;23.250;2023-04-25T06:08:21;7.00;;;6.40;;
15049;SDS011;7622;42.724;23.250;2023-04-25T06:10:48;5.93;;;5.30;;
15049;SDS011;7622;42.724;23.250;2023-04-25T06:13:15;6.00;;;5.40;;
15049;SDS011;7622;42.724;23.250;2023-04-25T06:15:43;7.77;;;5.70;;
15049;SDS011;7622;42.724;23.250;2023-04-25T06:18:10;7.10;;;6.40;;
15049;SDS011;7622;42.724;23.250;2023-04-25T06:20:37;13.40;;;7.43;;
15049;SDS011;7622;42.724;23.250;2023-04-25T06:23:04;11.17;;;6.40;;
15049;SDS011;7622;42.724;23.250;2023-04-25T06:25:30;7.77;;;6.93;;
15049;SDS011;7622;42.724;23.250;2023-04-25T06:27:57;9.23;;;6.63;;
15049;SDS011;7622;42.724;23.250;2023-04-25T06:30:24;8.17;;;7.37;;
15049;SDS011;7622;42.724;23.250;2023-04-25T06:32:53;9.90;;;7.43;;
15049;SDS011;7622;42.724;23.250;2023-04-25T06:35:20;15.17;;;7.77;;
15049;SDS011;7622;42.724;23.250;2023-04-25T06:37:47;9.40;;;7.20;;
15049;SDS011;7622;42.724;23.250;2023-04-25T06:40:14;8.47;;;7.53;;
15049;SDS011;7622;42.724;23.250;2023-04-25T06:42:42;11.90;;;7.37;;
15049;SDS011;7622;42.724;23.250;2023-04-25T06:45:09;9.57;;;7.03;;
15049;SDS011;7622;42.724;23.250;2023-04-25T06:47:37;12.70;;;7.80;;
15049;SDS011;7622;42.724;23.250;2023-04-25T06:50:06;9.60;;;7.47;;
15049;SDS011;7622;42.724;23.250;2023-04-25T06:52:33;12.27;;;7.00;;
15049;SDS011;7622;42.724;23.250;2023-04-25T06:55:00;7.77;;;6.97;;
15049;SDS011;7622;42.724;23.250;2023-04-25T06:57:26;9.37;;;8.40;;
15049;SDS011;7622;42.724;23.250;2023-04-25T06:59:53;9.10;;;6.80;;
15049;SDS011;7622;42.724;23.250;2023-04-25T07:02:20;10.97;;;7.07;;
15049;SDS011;7622;42.724;23.250;2023-04-25T07:04:47;7.80;;;6.73;;
15049;SDS011;7622;42.724;23.250;2023-04-25T07:07:16;10.27;;;9.13;;
15049;SDS011;7622;42.724;23.250;2023-04-25T07:09:46;13.17;;;9.50;;
15049;SDS011;7622;42.724;23.250;2023-04-25T07:12:15;14.63;;;10.67;;
15049;SDS011;7622;42.724;23.250;2023-04-25T07:14:44;15.20;;;12.40;;
15049;SDS011;7622;42.724;23.250;2023-04-25T07:17:13;14.40;;;12.27;;
15049;SDS011;7622;42.724;23.250;2023-04-25T07:19:40;16.13;;;11.63;;
15049;SDS011;7622;42.724;23.250;2023-04-25T07:22:07;12.73;;;11.43;;
15049;SDS011;7622;42.724;23.250;2023-04-25T07:24:35;14.90;;;11.17;;
15049;SDS011;7622;42.724;23.250;2023-04-25T07:27:02;17.93;;;11.53;;
15049;SDS011;7622;42.724;23.250;2023-04-25T07:29:29;15.57;;;12.03;;
15049;SDS011;7622;42.724;23.250;2023-04-25T07:31:56;17.07;;;11.27;;
15049;SDS011;7622;42.724;23.250;2023-04-25T07:34:23;15.67;;;11.83;;
15049;SDS011;7622;42.724;23.250;2023-04-25T07:36:50;14.40;;;11.57;;
15049;SDS011;7622;42.724;23.250;2023-04-25T07:39:16;14.10;;;11.27;;
15049;SDS011;7622;42.724;23.250;2023-04-25T07:41:45;15.53;;;11.43;;
15049;SDS011;7622;42.724;23.250;2023-04-25T07:44:11;12.73;;;11.33;;
15049;SDS011;7622;42.724;23.250;2023-04-25T07:46:38;15.07;;;10.50;;
15049;SDS011;7622;42.724;23.250;2023-04-25T07:49:05;13.33;;;11.37;;
15049;SDS011;7622;42.724;23.250;2023-04-25T07:51:32;16.13;;;10.90;;
15049;SDS011;7622;42.724;23.250;2023-04-25T07:53:59;12.90;;;10.77;;
15049;SDS011;7622;42.724;23.250;2023-04-25T07:56:26;12.20;;;10.83;;
15049;SDS011;7622;42.724;23.250;2023-04-25T07:58:54;14.23;;;11.00;;
15049;SDS011;7622;42.724;23.250;2023-04-25T08:01:21;12.70;;;10.63;;
15049;SDS011;7622;42.724;23.250;2023-04-25T08:03:47;12.80;;;10.50;;
15049;SDS011;7622;42.724;23.250;2023-04-25T08:06:14;13.03;;;10.03;;
15049;SDS011;7622;42.724;23.250;2023-04-25T08:08:41;11.27;;;10.13;;
15049;SDS011;7622;42.724;23.250;2023-04-25T08:11:08;14.57;;;9.50;;
15049;SDS011;7622;42.724;23.250;2023-04-25T08:13:35;10.23;;;8.83;;
15049;SDS011;7622;42.724;23.250;2023-04-25T08:16:06;14.90;;;9.37;;
15049;SDS011;7622;42.724;23.250;2023-04-25T08:18:33;16.47;;;10.13;;
15049;SDS011;7622;42.724;23.250;2023-04-25T08:21:00;11.73;;;9.53;;
15049;SDS011;7622;42.724;23.250;2023-04-25T08:23:27;11.80;;;9.63;;
15049;SDS011;7622;42.724;23.250;2023-04-25T08:25:54;12.10;;;8.10;;
15049;SDS011;7622;42.724;23.250;2023-04-25T08:28:21;18.70;;;8.93;;
15049;SDS011;7622;42.724;23.250;2023-04-25T08:30:47;9.20;;;8.27;;
15049;SDS011;7622;42.724;23.250;2023-04-25T08:33:16;11.40;;;8.97;;
15049;SDS011;7622;42.724;23.250;2023-04-25T08:35:43;6.50;;;5.87;;
15049;SDS011;7622;42.724;23.250;2023-04-25T08:38:10;5.63;;;4.00;;
15049;SDS011;7622;42.724;23.250;2023-04-25T08:40:38;3.93;;;3.50;;
15049;SDS011;7622;42.724;23.250;2023-04-25T08:43:06;10.47;;;6.80;;
15049;SDS011;7622;42.724;23.250;2023-04-25T08:45:36;9.90;;;8.47;;
15049;SDS011;7622;42.724;23.250;2023-04-25T08:48:07;13.70;;;8.83;;
15049;SDS011;7622;42.724;23.250;2023-04-25T08:50:38;10.33;;;8.67;;
15049;SDS011;7622;42.724;23.250;2023-04-25T08:53:07;7.50;;;6.90;;
15049;SDS011;7622;42.724;23.250;2023-04-25T08:55:36;8.07;;;7.30;;
15049;SDS011;7622;42.724;23.250;2023-04-25T08:58:07;7.60;;;6.97;;
15049;SDS011;7622;42.724;23.250;2023-04-25T09:00:36;7.93;;;6.43;;
15049;SDS011;7622;42.724;23.250;2023-04-25T09:03:03;8.17;;;7.37;;
15049;SDS011;7622;42.724;23.250;2023-04-25T09:05:30;8.90;;;7.70;;
15049;SDS011;7622;42.724;23.250;2023-04-25T09:07:59;9.03;;;6.93;;
15049;SDS011;7622;42.724;23.250;2023-04-25T09:10:26;5.97;;;5.17;;
15049;SDS011;7622;42.724;23.250;2023-04-25T09:13:03;6.80;;;5.27;;
15049;SDS011;7622;42.724;23.250;2023-04-25T09:15:31;6.03;;;5.53;;
15049;SDS011;7622;42.724;23.250;2023-04-25T09:17:59;6.13;;;5.67;;
15049;SDS011;7622;42.724;23.250;2023-04-25T09:20:26;6.77;;;5.73;;
15049;SDS011;7622;42.724;23.250;2023-04-25T09:23:04;6.13;;;5.60;;
15049;SDS011;7622;42.724;23.250;2023-04-25T09:25:34;6.37;;;5.53;;
15049;SDS011;7622;42.724;23.250;2023-04-25T09:28:05;4.50;;;4.20;;
15049;SDS011;7622;42.724;23.250;2023-04-25T09:30:33;5.87;;;4.97;;
15049;SDS011;7622;42.724;23.250;2023-04-25T09:33:04;4.87;;;4.47;;
15049;SDS011;7622;42.724;23.250;2023-04-25T09:35:36;4.10;;;3.70;;
15049;SDS011;7622;42.724;23.250;2023-04-25T09:38:09;3.60;;;3.40;;
15049;SDS011;7622;42.724;23.250;2023-04-25T09:40:41;3.93;;;3.30;;
15049;SDS011;7622;42.724;23.250;2023-04-25T09:43:09;3.07;;;2.87;;
15049;SDS011;7622;42.724;23.250;2023-04-25T09:45:45;2.90;;;2.80;;
15049;SDS011;7622;42.724;23.250;2023-04-25T09:48:16;2.50;;;2.37;;
15049;SDS011;7622;42.724;23.250;2023-04-25T09:50:45;2.83;;;2.60;;
15049;SDS011;7622;42.724;23.250;2023-04-25T09:53:13;5.07;;;2.23;;
15049;SDS011;7622;42.724;23.250;2023-04-25T09:55:40;2.67;;;2.47;;
15049;SDS011;7622;42.724;23.250;2023-04-25T09:58:09;2.60;;;2.40;;
15049;SDS011;7622;42.724;23.250;2023-04-25T10:00:37;3.50;;;2.43;;
15049;SDS011;7622;42.724;23.250;2023-04-25T10:03:05;2.57;;;2.40;;
15049;SDS011;7622;42.724;23.250;2023-04-25T10:05:32;2.03;;;1.93;;
15049;SDS011;7622;42.724;23.250;2023-04-25T10:08:02;1.60;;;1.60;;
15049;SDS011;7622;42.724;23.250;2023-04-25T10:10:32;1.80;;;1.53;;
15049;SDS011;7622;42.724;23.250;2023-04-25T10:13:02;3.33;;;1.80;;
15049;SDS011;7622;42.724;23.250;2023-04-25T10:15:31;1.80;;;1.70;;
15049;SDS011;7622;42.724;23.250;2023-04-25T10:18:01;1.63;;;1.53;;
15049;SDS011;7622;42.724;23.250;2023-04-25T10:20:29;5.43;;;1.80;;
15049;SDS011;7622;42.724;23.250;2023-04-25T10:22:58;3.27;;;2.20;;
15049;SDS011;7622;42.724;23.250;2023-04-25T10:25:35;3.80;;;2.43;;
15049;SDS011;7622;42.724;23.250;2023-04-25T10:28:03;1.53;;;1.43;;
15049;SDS011;7622;42.724;23.250;2023-04-25T10:30:30;4.67;;;1.30;;
15049;SDS011;7622;42.724;23.250;2023-04-25T10:32:56;2.37;;;1.73;;
15049;SDS011;7622;42.724;23.250;2023-04-25T10:35:25;2.93;;;1.50;;
15049;SDS011;7622;42.724;23.250;2023-04-25T10:37:57;2.90;;;1.97;;
15049;SDS011;7622;42.724;23.250;2023-04-25T10:40:24;1.40;;;1.30;;
15049;SDS011;7622;42.724;23.250;2023-04-25T10:42:53;1.97;;;1.40;;
15049;SDS011;7622;42.724;23.250;2023-04-25T10:45:21;1.50;;;1.10;;
15049;SDS011;7622;42.724;23.250;2023-04-25T10:47:48;5.90;;;1.50;;
15049;SDS011;7622;42.724;23.250;2023-04-25T10:50:15;4.57;;;1.60;;
15049;SDS011;7622;42.724;23.250;2023-04-25T10:52:43;0.80;;;0.80;;
15049;SDS011;7622;42.724;23.250;2023-04-25T10:55:10;1.03;;;1.03;;
15049;SDS011;7622;42.724;23.250;2023-04-25T10:57:38;2.33;;;0.90;;
15049;SDS011;7622;42.724;23.250;2023-04-25T11:00:09;1.90;;;1.10;;
15049;SDS011;7622;42.724;23.250;2023-04-25T11:02:42;0.73;;;0.73;;
15049;SDS011;7622;42.724;23.250;2023-04-25T11:05:11;1.93;;;0.77;;
15049;SDS011;7622;42.724;23.250;2023-04-25T11:07:49;0.67;;;0.67;;
15049;SDS011;7622;42.724;23.250;2023-04-25T11:10:17;0.57;;;0.57;;
15049;SDS011;7622;42.724;23.250;2023-04-25T11:12:45;1.23;;;0.80;;
15049;SDS011;7622;42.724;23.250;2023-04-25T11:15:13;0.50;;;0.50;;
15049;SDS011;7622;42.724;23.250;2023-04-25T11:17:40;1.60;;;0.60;;
15049;SDS011;7622;42.724;23.250;2023-04-25T11:20:10;0.90;;;0.90;;
15049;SDS011;7622;42.724;23.250;2023-04-25T11:22:39;0.93;;;0.93;;
15049;SDS011;7622;42.724;23.250;2023-04-25T11:25:07;3.07;;;0.90;;
15049;SDS011;7622;42.724;23.250;2023-04-25T11:27:49;0.90;;;0.90;;
15049;SDS011;7622;42.724;23.250;2023-04-25T11:30:20;0.80;;;0.80;;
15049;SDS011;7622;42.724;23.250;2023-04-25T11:32:50;3.80;;;0.83;;
15049;SDS011;7622;42.724;23.250;2023-04-25T11:35:19;4.73;;;1.00;;
15049;SDS011;7622;42.724;23.250;2023-04-25T11:37:48;1.47;;;1.00;;
15049;SDS011;7622;42.724;23.250;2023-04-25T11:40:15;1.47;;;1.37;;
15049;SDS011;7622;42.724;23.250;2023-04-25T11:42:43;1.47;;;1.37;;
15049;SDS011;7622;42.724;23.250;2023-04-25T11:45:11;1.07;;;0.90;;
15049;SDS011;7622;42.724;23.250;2023-04-25T11:47:39;0.97;;;0.97;;
15049;SDS011;7622;42.724;23.250;2023-04-25T11:50:06;0.80;;;0.80;;
15049;SDS011;7622;42.724;23.250;2023-04-25T11:52:35;1.60;;;0.70;;
15049;SDS011;7622;42.724;23.250;2023-04-25T11:55:06;5.10;;;1.13;;
15049;SDS011;7622;42.724;23.250;2023-04-25T11:57:34;1.53;;;0.77;;
15049;SDS011;7622;42.724;23.250;2023-04-25T12:00:10;0.80;;;0.80;;
15049;SDS011;7622;42.724;23.250;2023-04-25T12:02:43;0.70;;;0.70;;
15049;SDS011;7622;42.724;23.250;2023-04-25T12:05:11;0.83;;;0.70;;
15049;SDS011;7622;42.724;23.250;2023-04-25T12:07:40;0.40;;;0.40;;
15049;SDS011;7622;42.724;23.250;2023-04-25T12:10:08;1.10;;;1.03;;
15049;SDS011;7622;42.724;23.250;2023-04-25T12:12:37;0.77;;;0.73;;
15049;SDS011;7622;42.724;23.250;2023-04-25T12:15:11;1.00;;;1.00;;
15049;SDS011;7622;42.724;23.250;2023-04-25T12:17:40;2.40;;;0.70;;
15049;SDS011;7622;42.724;23.250;2023-04-25T12:20:10;6.20;;;1.30;;
15049;SDS011;7622;42.724;23.250;2023-04-25T12:22:40;10.40;;;1.50;;
15049;SDS011;7622;42.724;23.250;2023-04-25T12:25:09;5.80;;;1.40;;
15049;SDS011;7622;42.724;23.250;2023-04-25T12:27:37;1.90;;;0.90;;
15049;SDS011;7622;42.724;23.250;2023-04-25T12:30:05;1.80;;;0.70;;
15049;SDS011;7622;42.724;23.250;2023-04-25T12:32:33;0.87;;;0.87;;
15049;SDS011;7622;42.724;23.250;2023-04-25T12:35:00;1.03;;;1.03;;
15049;SDS011;7622;42.724;23.250;2023-04-25T12:37:30;2.77;;;1.20;;
15049;SDS011;7622;42.724;23.250;2023-04-25T12:40:00;1.33;;;1.20;;
15049;SDS011;7622;42.724;23.250;2023-04-25T12:42:30;2.63;;;2.43;;
15049;SDS011;7622;42.724;23.250;2023-04-25T12:44:56;3.53;;;2.57;;
15049;SDS011;7622;42.724;23.250;2023-04-25T12:47:23;2.43;;;1.60;;
15049;SDS011;7622;42.724;23.250;2023-04-25T12:49:50;2.03;;;1.93;;
15049;SDS011;7622;42.724;23.250;2023-04-25T12:52:17;2.53;;;2.37;;
15049;SDS011;7622;42.724;23.250;2023-04-25T12:54:45;3.03;;;2.80;;
15049;SDS011;7622;42.724;23.250;2023-04-25T12:57:12;1.80;;;1.70;;
15049;SDS011;7622;42.724;23.250;2023-04-25T12:59:38;1.67;;;1.57;;
15049;SDS011;7622;42.724;23.250;2023-04-25T13:02:05;2.30;;;1.80;;
15049;SDS011;7622;42.724;23.250;2023-04-25T13:04:32;2.07;;;1.80;;
15049;SDS011;7622;42.724;23.250;2023-04-25T13:06:58;2.03;;;1.80;;
15049;SDS011;7622;42.724;23.250;2023-04-25T13:09:25;2.90;;;1.60;;
15049;SDS011;7622;42.724;23.250;2023-04-25T13:11:53;2.00;;;1.33;;
15049;SDS011;7622;42.724;23.250;2023-04-25T13:14:20;1.07;;;1.07;;
15049;SDS011;7622;42.724;23.250;2023-04-25T13:16:47;1.60;;;1.40;;
15049;SDS011;7622;42.724;23.250;2023-04-25T13:19:14;1.47;;;1.37;;
15049;SDS011;7622;42.724;23.250;2023-04-25T13:21:41;1.83;;;1.60;;
15049;SDS011;7622;42.724;23.250;2023-04-25T13:24:08;1.77;;;1.67;;
15049;SDS011;7622;42.724;23.250;2023-04-25T13:26:34;2.23;;;1.77;;
15049;SDS011;7622;42.724;23.250;2023-04-25T13:29:03;3.20;;;1.87;;
15049;SDS011;7622;42.724;23.250;2023-04-25T13:31:30;3.73;;;1.87;;
15049;SDS011;7622;42.724;23.250;2023-04-25T13:33:57;3.00;;;1.87;;
15049;SDS011;7622;42.724;23.250;2023-04-25T13:36:24;2.90;;;1.80;;
15049;SDS011;7622;42.724;23.250;2023-04-25T13:38:51;1.57;;;1.40;;
15049;SDS011;7622;42.724;23.250;2023-04-25T13:41:18;3.53;;;2.03;;
15049;SDS011;7622;42.724;23.250;2023-04-25T13:43:45;3.80;;;2.00;;
15049;SDS011;7622;42.724;23.250;2023-04-25T13:46:15;2.50;;;1.60;;
15049;SDS011;7622;42.724;23.250;2023-04-25T13:48:42;5.17;;;1.80;;
15049;SDS011;7622;42.724;23.250;2023-04-25T13:51:13;3.47;;;1.77;;
15049;SDS011;7622;42.724;23.250;2023-04-25T13:53:43;2.10;;;1.70;;
15049;SDS011;7622;42.724;23.250;2023-04-25T13:56:12;2.60;;;1.20;;
15049;SDS011;7622;42.724;23.250;2023-04-25T13:58:40;2.33;;;2.10;;
15049;SDS011;7622;42.724;23.250;2023-04-25T14:01:06;2.10;;;1.87;;
15049;SDS011;7622;42.724;23.250;2023-04-25T14:03:35;3.20;;;2.10;;
15049;SDS011;7622;42.724;23.250;2023-04-25T14:06:01;2.27;;;1.60;;
15049;SDS011;7622;42.724;23.250;2023-04-25T14:08:29;2.17;;;1.97;;
15049;SDS011;7622;42.724;23.250;2023-04-25T14:10:56;2.57;;;1.50;;
15049;SDS011;7622;42.724;23.250;2023-04-25T14:13:23;2.10;;;1.30;;
15049;SDS011;7622;42.724;23.250;2023-04-25T14:15:50;1.93;;;1.47;;
15049;SDS011;7622;42.724;23.250;2023-04-25T14:18:17;2.40;;;1.60;;
15049;SDS011;7622;42.724;23.250;2023-04-25T14:20:45;1.30;;;1.20;;
15049;SDS011;7622;42.724;23.250;2023-04-25T14:23:12;1.63;;;1.00;;
15049;SDS011;7622;42.724;23.250;2023-04-25T14:25:39;1.80;;;1.10;;
15049;SDS011;7622;42.724;23.250;2023-04-25T14:28:07;4.40;;;2.03;;
15049;SDS011;7622;42.724;23.250;2023-04-25T14:30:34;2.10;;;1.43;;
15049;SDS011;7622;42.724;23.250;2023-04-25T14:33:00;1.40;;;1.20;;
15049;SDS011;7622;42.724;23.250;2023-04-25T14:35:27;1.80;;;1.70;;
15049;SDS011;7622;42.724;23.250;2023-04-25T14:37:55;1.50;;;1.40;;
15049;SDS011;7622;42.724;23.250;2023-04-25T14:40:22;1.50;;;1.40;;
15049;SDS011;7622;42.724;23.250;2023-04-25T14:42:49;3.70;;;1.50;;
15049;SDS011;7622;42.724;23.250;2023-04-25T14:45:17;1.70;;;1.60;;
15049;SDS011;7622;42.724;23.250;2023-04-25T14:47:45;2.30;;;1.20;;